sensor_id;sensor_type;location;lat;lon;timestamp;P1;durP1;ratioP1;P2;durP2;ratioP2
70832;SDS011;58452;59.418;17.962;2023-04-01T00:01:45;1.48;;;1.38;;
70832;SDS011;58452;59.418;17.962;2023-04-01T00:04:11;1.80;;;1.55;;
70832;SDS011;58452;59.418;17.962;2023-04-01T00:06:36;3.28;;;1.20;;
70832;SDS011;58452;59.418;17.962;2023-04-01T00:09:02;2.85;;;2.65;;
70832;SDS011;58452;59.418;17.962;2023-04-01T00:11:27;1.20;;;1.10;;
70832;SDS011;58452;59.418;17.962;2023-04-01T00:13:53;2.05;;;1.75;;
70832;SDS011;58452;59.418;17.962;2023-04-01T00:16:19;3.05;;;1.00;;
70832;SDS011;58452;59.418;17.962;2023-04-01T00:18:44;1.50;;;1.23;;
70832;SDS011;58452;59.418;17.962;2023-04-01T00:21:12;2.33;;;1.33;;
70832;SDS011;58452;59.418;17.962;2023-04-01T00:23:37;1.98;;;1.38;;
70832;SDS011;58452;59.418;17.962;2023-04-01T00:26:03;3.03;;;1.45;;
70832;SDS011;58452;59.418;17.962;2023-04-01T00:28:29;1.67;;;1.45;;
70832;SDS011;58452;59.418;17.962;2023-04-01T00:30:55;2.28;;;1.30;;
70832;SDS011;58452;59.418;17.962;2023-04-01T00:33:20;3.85;;;1.50;;
70832;SDS011;58452;59.418;17.962;2023-04-01T00:35:46;2.97;;;1.40;;
70832;SDS011;58452;59.418;17.962;2023-04-01T00:38:11;2.60;;;1.40;;
70832;SDS011;58452;59.418;17.962;2023-04-01T00:40:39;2.42;;;1.60;;
70832;SDS011;58452;59.418;17.962;2023-04-01T00:43:16;16.52;;;3.20;;
70832;SDS011;58452;59.418;17.962;2023-04-01T00:45:44;1.77;;;1.13;;
70832;SDS011;58452;59.418;17.962;2023-04-01T00:48:18;2.03;;;1.30;;
70832;SDS011;58452;59.418;17.962;2023-04-01T00:53:51;3.75;;;1.63;;
70832;SDS011;58452;59.418;17.962;2023-04-01T00:56:21;2.30;;;1.48;;
70832;SDS011;58452;59.418;17.962;2023-04-01T00:58:54;2.55;;;1.60;;
70832;SDS011;58452;59.418;17.962;2023-04-01T01:01:23;3.08;;;1.80;;
70832;SDS011;58452;59.418;17.962;2023-04-01T01:03:50;4.70;;;1.85;;
70832;SDS011;58452;59.418;17.962;2023-04-01T01:17:06;2.20;;;1.70;;
70832;SDS011;58452;59.418;17.962;2023-04-01T01:33:57;5.50;;;2.47;;
70832;SDS011;58452;59.418;17.962;2023-04-01T01:36:26;2.80;;;1.88;;
70832;SDS011;58452;59.418;17.962;2023-04-01T01:38:56;2.67;;;1.45;;
70832;SDS011;58452;59.418;17.962;2023-04-01T01:41:22;2.67;;;1.35;;
70832;SDS011;58452;59.418;17.962;2023-04-01T01:43:51;4.70;;;1.48;;
70832;SDS011;58452;59.418;17.962;2023-04-01T01:46:21;2.63;;;1.60;;
70832;SDS011;58452;59.418;17.962;2023-04-01T01:48:49;2.67;;;1.50;;
70832;SDS011;58452;59.418;17.962;2023-04-01T01:51:16;2.00;;;1.50;;
70832;SDS011;58452;59.418;17.962;2023-04-01T01:53:43;1.50;;;1.13;;
70832;SDS011;58452;59.418;17.962;2023-04-01T01:56:09;4.35;;;1.95;;
70832;SDS011;58452;59.418;17.962;2023-04-01T01:58:38;2.85;;;1.75;;
70832;SDS011;58452;59.418;17.962;2023-04-01T02:01:13;2.13;;;1.23;;
70832;SDS011;58452;59.418;17.962;2023-04-01T02:03:42;4.38;;;1.52;;
70832;SDS011;58452;59.418;17.962;2023-04-01T02:06:10;4.15;;;2.00;;
70832;SDS011;58452;59.418;17.962;2023-04-01T02:11:12;4.22;;;1.92;;
70832;SDS011;58452;59.418;17.962;2023-04-01T02:18:57;2.22;;;1.65;;
70832;SDS011;58452;59.418;17.962;2023-04-01T02:21:24;1.60;;;1.45;;
70832;SDS011;58452;59.418;17.962;2023-04-01T02:23:54;2.25;;;1.88;;
70832;SDS011;58452;59.418;17.962;2023-04-01T02:26:23;2.80;;;1.77;;
70832;SDS011;58452;59.418;17.962;2023-04-01T02:28:52;3.25;;;1.92;;
70832;SDS011;58452;59.418;17.962;2023-04-01T02:31:19;3.65;;;2.20;;
70832;SDS011;58452;59.418;17.962;2023-04-01T02:33:45;4.00;;;2.10;;
70832;SDS011;58452;59.418;17.962;2023-04-01T02:36:12;1.65;;;1.23;;
70832;SDS011;58452;59.418;17.962;2023-04-01T02:38:39;4.25;;;1.50;;
70832;SDS011;58452;59.418;17.962;2023-04-01T02:41:05;2.13;;;1.85;;
70832;SDS011;58452;59.418;17.962;2023-04-01T02:43:32;4.57;;;1.70;;
70832;SDS011;58452;59.418;17.962;2023-04-01T02:45:57;3.03;;;1.75;;
70832;SDS011;58452;59.418;17.962;2023-04-01T02:48:23;4.55;;;1.73;;
70832;SDS011;58452;59.418;17.962;2023-04-01T02:50:48;5.25;;;1.60;;
70832;SDS011;58452;59.418;17.962;2023-04-01T02:53:14;2.60;;;1.70;;
70832;SDS011;58452;59.418;17.962;2023-04-01T02:55:40;2.30;;;1.55;;
70832;SDS011;58452;59.418;17.962;2023-04-01T02:58:06;2.70;;;1.63;;
70832;SDS011;58452;59.418;17.962;2023-04-01T03:00:31;4.53;;;1.45;;
70832;SDS011;58452;59.418;17.962;2023-04-01T03:02:57;5.43;;;1.65;;
70832;SDS011;58452;59.418;17.962;2023-04-01T03:05:22;5.43;;;1.58;;
70832;SDS011;58452;59.418;17.962;2023-04-01T03:07:48;5.30;;;1.77;;
70832;SDS011;58452;59.418;17.962;2023-04-01T03:10:13;2.78;;;1.30;;
70832;SDS011;58452;59.418;17.962;2023-04-01T03:12:39;2.15;;;1.70;;
70832;SDS011;58452;59.418;17.962;2023-04-01T03:15:05;1.60;;;1.48;;
70832;SDS011;58452;59.418;17.962;2023-04-01T03:17:31;2.90;;;2.15;;
70832;SDS011;58452;59.418;17.962;2023-04-01T03:19:56;3.63;;;1.50;;
70832;SDS011;58452;59.418;17.962;2023-04-01T03:22:22;3.63;;;1.13;;
70832;SDS011;58452;59.418;17.962;2023-04-01T03:24:50;1.92;;;1.38;;
70832;SDS011;58452;59.418;17.962;2023-04-01T03:27:16;2.67;;;1.67;;
70832;SDS011;58452;59.418;17.962;2023-04-01T03:29:41;4.95;;;1.95;;
70832;SDS011;58452;59.418;17.962;2023-04-01T03:32:07;3.40;;;1.65;;
70832;SDS011;58452;59.418;17.962;2023-04-01T03:34:32;2.33;;;2.13;;
70832;SDS011;58452;59.418;17.962;2023-04-01T03:36:58;3.25;;;1.17;;
70832;SDS011;58452;59.418;17.962;2023-04-01T03:39:23;2.75;;;1.52;;
70832;SDS011;58452;59.418;17.962;2023-04-01T03:41:50;2.55;;;1.58;;
70832;SDS011;58452;59.418;17.962;2023-04-01T03:44:15;4.38;;;1.90;;
70832;SDS011;58452;59.418;17.962;2023-04-01T03:46:41;1.92;;;1.63;;
70832;SDS011;58452;59.418;17.962;2023-04-01T03:49:07;2.13;;;1.75;;
70832;SDS011;58452;59.418;17.962;2023-04-01T03:51:40;1.48;;;1.05;;
70832;SDS011;58452;59.418;17.962;2023-04-01T03:54:07;5.15;;;1.77;;
70832;SDS011;58452;59.418;17.962;2023-04-01T03:56:32;3.17;;;1.70;;
70832;SDS011;58452;59.418;17.962;2023-04-01T03:58:58;1.63;;;1.38;;
70832;SDS011;58452;59.418;17.962;2023-04-01T04:01:27;3.72;;;1.77;;
70832;SDS011;58452;59.418;17.962;2023-04-01T04:03:53;3.55;;;2.33;;
70832;SDS011;58452;59.418;17.962;2023-04-01T04:06:19;2.75;;;1.65;;
70832;SDS011;58452;59.418;17.962;2023-04-01T04:08:45;5.28;;;1.38;;
70832;SDS011;58452;59.418;17.962;2023-04-01T04:11:10;2.40;;;1.67;;
70832;SDS011;58452;59.418;17.962;2023-04-01T04:13:36;2.25;;;1.52;;
70832;SDS011;58452;59.418;17.962;2023-04-01T04:16:02;1.55;;;1.45;;
70832;SDS011;58452;59.418;17.962;2023-04-01T04:18:28;3.05;;;2.03;;
70832;SDS011;58452;59.418;17.962;2023-04-01T04:20:53;2.35;;;1.30;;
70832;SDS011;58452;59.418;17.962;2023-04-01T04:23:19;2.45;;;1.85;;
70832;SDS011;58452;59.418;17.962;2023-04-01T04:25:54;1.52;;;1.30;;
70832;SDS011;58452;59.418;17.962;2023-04-01T04:28:25;3.50;;;1.27;;
70832;SDS011;58452;59.418;17.962;2023-04-01T04:30:52;4.07;;;1.52;;
70832;SDS011;58452;59.418;17.962;2023-04-01T04:33:18;1.92;;;1.50;;
70832;SDS011;58452;59.418;17.962;2023-04-01T04:35:44;2.80;;;1.50;;
70832;SDS011;58452;59.418;17.962;2023-04-01T04:38:09;2.97;;;1.45;;
70832;SDS011;58452;59.418;17.962;2023-04-01T04:40:38;2.55;;;1.60;;
70832;SDS011;58452;59.418;17.962;2023-04-01T04:43:05;5.00;;;1.75;;
70832;SDS011;58452;59.418;17.962;2023-04-01T04:45:31;2.38;;;1.55;;
70832;SDS011;58452;59.418;17.962;2023-04-01T04:47:57;2.35;;;1.75;;
70832;SDS011;58452;59.418;17.962;2023-04-01T04:50:22;3.00;;;1.58;;
70832;SDS011;58452;59.418;17.962;2023-04-01T04:52:50;1.73;;;1.35;;
70832;SDS011;58452;59.418;17.962;2023-04-01T04:55:15;2.47;;;1.83;;
70832;SDS011;58452;59.418;17.962;2023-04-01T04:57:41;1.70;;;1.48;;
70832;SDS011;58452;59.418;17.962;2023-04-01T05:00:07;2.95;;;2.08;;
70832;SDS011;58452;59.418;17.962;2023-04-01T05:02:35;2.25;;;1.52;;
70832;SDS011;58452;59.418;17.962;2023-04-01T05:05:00;2.03;;;1.58;;
70832;SDS011;58452;59.418;17.962;2023-04-01T05:07:26;2.58;;;1.48;;
70832;SDS011;58452;59.418;17.962;2023-04-01T05:09:51;2.95;;;1.70;;
70832;SDS011;58452;59.418;17.962;2023-04-01T05:12:16;2.47;;;1.88;;
70832;SDS011;58452;59.418;17.962;2023-04-01T05:14:42;1.92;;;1.52;;
70832;SDS011;58452;59.418;17.962;2023-04-01T05:17:08;2.38;;;1.48;;
70832;SDS011;58452;59.418;17.962;2023-04-01T05:19:35;3.53;;;1.35;;
70832;SDS011;58452;59.418;17.962;2023-04-01T05:22:01;4.15;;;1.42;;
70832;SDS011;58452;59.418;17.962;2023-04-01T05:32:12;2.03;;;1.35;;
70832;SDS011;58452;59.418;17.962;2023-04-01T05:34:37;3.72;;;1.55;;
70832;SDS011;58452;59.418;17.962;2023-04-01T05:37:03;5.50;;;1.52;;
70832;SDS011;58452;59.418;17.962;2023-04-01T05:39:28;1.55;;;1.38;;
70832;SDS011;58452;59.418;17.962;2023-04-01T05:41:54;2.47;;;2.13;;
70832;SDS011;58452;59.418;17.962;2023-04-01T05:44:19;2.45;;;1.70;;
70832;SDS011;58452;59.418;17.962;2023-04-01T05:46:45;1.90;;;1.27;;
70832;SDS011;58452;59.418;17.962;2023-04-01T05:49:10;2.47;;;1.35;;
70832;SDS011;58452;59.418;17.962;2023-04-01T05:51:35;3.72;;;1.42;;
70832;SDS011;58452;59.418;17.962;2023-04-01T05:54:01;3.40;;;1.13;;
70832;SDS011;58452;59.418;17.962;2023-04-01T05:56:26;3.97;;;2.03;;
70832;SDS011;58452;59.418;17.962;2023-04-01T05:58:53;3.33;;;1.58;;
70832;SDS011;58452;59.418;17.962;2023-04-01T06:01:19;4.63;;;1.45;;
70832;SDS011;58452;59.418;17.962;2023-04-01T06:03:46;2.60;;;1.67;;
70832;SDS011;58452;59.418;17.962;2023-04-01T06:06:22;1.95;;;1.67;;
70832;SDS011;58452;59.418;17.962;2023-04-01T06:08:50;2.80;;;1.10;;
70832;SDS011;58452;59.418;17.962;2023-04-01T06:11:19;3.25;;;1.50;;
70832;SDS011;58452;59.418;17.962;2023-04-01T06:14:05;1.75;;;1.27;;
70832;SDS011;58452;59.418;17.962;2023-04-01T06:19:07;3.40;;;1.23;;
70832;SDS011;58452;59.418;17.962;2023-04-01T06:46:59;1.30;;;1.05;;
70832;SDS011;58452;59.418;17.962;2023-04-01T06:54:26;0.95;;;0.90;;
70832;SDS011;58452;59.418;17.962;2023-04-01T06:56:59;5.65;;;1.20;;
70832;SDS011;58452;59.418;17.962;2023-04-01T06:59:32;2.97;;;1.30;;
70832;SDS011;58452;59.418;17.962;2023-04-01T07:02:14;4.15;;;1.27;;
70832;SDS011;58452;59.418;17.962;2023-04-01T07:04:48;2.55;;;1.00;;
70832;SDS011;58452;59.418;17.962;2023-04-01T07:07:21;1.83;;;1.10;;
70832;SDS011;58452;59.418;17.962;2023-04-01T07:09:55;3.03;;;0.90;;
70832;SDS011;58452;59.418;17.962;2023-04-01T07:12:48;1.17;;;0.88;;
70832;SDS011;58452;59.418;17.962;2023-04-01T07:17:54;1.67;;;1.00;;
70832;SDS011;58452;59.418;17.962;2023-04-01T07:20:25;2.38;;;1.17;;
70832;SDS011;58452;59.418;17.962;2023-04-01T07:22:56;1.55;;;1.08;;
70832;SDS011;58452;59.418;17.962;2023-04-01T07:25:27;1.73;;;1.02;;
70832;SDS011;58452;59.418;17.962;2023-04-01T07:27:56;2.33;;;0.90;;
70832;SDS011;58452;59.418;17.962;2023-04-01T07:30:28;1.83;;;1.17;;
70832;SDS011;58452;59.418;17.962;2023-04-01T07:33:19;1.65;;;1.17;;
70832;SDS011;58452;59.418;17.962;2023-04-01T07:35:54;3.97;;;1.20;;
70832;SDS011;58452;59.418;17.962;2023-04-01T07:44:35;2.78;;;1.15;;
70832;SDS011;58452;59.418;17.962;2023-04-01T07:55:23;1.70;;;0.80;;
70832;SDS011;58452;59.418;17.962;2023-04-01T08:01:03;4.68;;;1.15;;
70832;SDS011;58452;59.418;17.962;2023-04-01T08:06:43;3.40;;;0.82;;
70832;SDS011;58452;59.418;17.962;2023-04-01T08:14:21;1.27;;;0.80;;
70832;SDS011;58452;59.418;17.962;2023-04-01T08:22:02;6.78;;;1.20;;
70832;SDS011;58452;59.418;17.962;2023-04-01T08:30:04;3.80;;;0.80;;
70832;SDS011;58452;59.418;17.962;2023-04-01T08:32:42;3.60;;;1.02;;
70832;SDS011;58452;59.418;17.962;2023-04-01T08:35:31;2.17;;;1.23;;
70832;SDS011;58452;59.418;17.962;2023-04-01T08:38:06;1.63;;;0.70;;
70832;SDS011;58452;59.418;17.962;2023-04-01T08:46:13;2.85;;;0.80;;
70832;SDS011;58452;59.418;17.962;2023-04-01T08:49:04;1.08;;;0.63;;
70832;SDS011;58452;59.418;17.962;2023-04-01T08:51:41;2.58;;;0.95;;
70832;SDS011;58452;59.418;17.962;2023-04-01T08:56:40;1.10;;;0.70;;
70832;SDS011;58452;59.418;17.962;2023-04-01T08:59:32;2.05;;;0.65;;
70832;SDS011;58452;59.418;17.962;2023-04-01T09:15:50;0.57;;;0.43;;
70832;SDS011;58452;59.418;17.962;2023-04-01T09:21:22;1.10;;;0.40;;
70832;SDS011;58452;59.418;17.962;2023-04-01T09:27:02;1.00;;;0.50;;
70832;SDS011;58452;59.418;17.962;2023-04-01T09:37:36;1.27;;;0.45;;
70832;SDS011;58452;59.418;17.962;2023-04-01T09:40:16;1.95;;;0.55;;
70832;SDS011;58452;59.418;17.962;2023-04-01T10:00:31;0.88;;;0.70;;
70832;SDS011;58452;59.418;17.962;2023-04-01T10:17:49;1.23;;;0.47;;
70832;SDS011;58452;59.418;17.962;2023-04-01T10:23:31;1.77;;;0.40;;
70832;SDS011;58452;59.418;17.962;2023-04-01T10:56:51;0.35;;;0.30;;
70832;SDS011;58452;59.418;17.962;2023-04-01T11:10:38;1.10;;;0.45;;
70832;SDS011;58452;59.418;17.962;2023-04-01T11:41:13;0.32;;;0.20;;
70832;SDS011;58452;59.418;17.962;2023-04-01T11:52:28;0.25;;;0.10;;
70832;SDS011;58452;59.418;17.962;2023-04-01T12:09:25;0.47;;;0.13;;
70832;SDS011;58452;59.418;17.962;2023-04-01T12:12:27;0.30;;;0.28;;
70832;SDS011;58452;59.418;17.962;2023-04-01T12:15:16;1.63;;;0.30;;
70832;SDS011;58452;59.418;17.962;2023-04-01T12:17:46;0.45;;;0.40;;
70832;SDS011;58452;59.418;17.962;2023-04-01T12:45:31;1.73;;;0.43;;
70832;SDS011;58452;59.418;17.962;2023-04-01T13:05:23;0.17;;;0.17;;
70832;SDS011;58452;59.418;17.962;2023-04-01T13:19:58;2.75;;;0.28;;
70832;SDS011;58452;59.418;17.962;2023-04-01T13:25:31;2.20;;;0.30;;
70832;SDS011;58452;59.418;17.962;2023-04-01T13:33:53;0.95;;;0.10;;
70832;SDS011;58452;59.418;17.962;2023-04-01T13:36:43;1.33;;;0.35;;
70832;SDS011;58452;59.418;17.962;2023-04-01T13:39:29;4.00;;;0.35;;
70832;SDS011;58452;59.418;17.962;2023-04-01T13:44:51;2.08;;;0.50;;
70832;SDS011;58452;59.418;17.962;2023-04-01T14:05:08;1.27;;;0.30;;
70832;SDS011;58452;59.418;17.962;2023-04-01T14:15:19;0.30;;;0.20;;
70832;SDS011;58452;59.418;17.962;2023-04-01T14:24:02;3.70;;;0.38;;
70832;SDS011;58452;59.418;17.962;2023-04-01T14:32:38;2.20;;;0.20;;
70832;SDS011;58452;59.418;17.962;2023-04-01T14:40:46;0.10;;;0.10;;
70832;SDS011;58452;59.418;17.962;2023-04-01T14:46:08;1.08;;;0.17;;
70832;SDS011;58452;59.418;17.962;2023-04-01T14:51:28;1.08;;;0.40;;
70832;SDS011;58452;59.418;17.962;2023-04-01T14:54:10;6.88;;;0.40;;
70832;SDS011;58452;59.418;17.962;2023-04-01T14:56:48;2.72;;;0.70;;
70832;SDS011;58452;59.418;17.962;2023-04-01T14:59:33;1.45;;;0.47;;
70832;SDS011;58452;59.418;17.962;2023-04-01T15:02:18;0.98;;;0.30;;
70832;SDS011;58452;59.418;17.962;2023-04-01T15:16:25;0.40;;;0.22;;
70832;SDS011;58452;59.418;17.962;2023-04-01T15:30:33;2.08;;;0.35;;
70832;SDS011;58452;59.418;17.962;2023-04-01T15:38:35;2.30;;;0.47;;
70832;SDS011;58452;59.418;17.962;2023-04-01T15:41:16;4.32;;;0.50;;
70832;SDS011;58452;59.418;17.962;2023-04-01T15:43:49;2.33;;;0.80;;
70832;SDS011;58452;59.418;17.962;2023-04-01T16:09:21;2.00;;;0.98;;
70832;SDS011;58452;59.418;17.962;2023-04-01T16:22:00;3.47;;;0.68;;
70832;SDS011;58452;59.418;17.962;2023-04-01T16:27:16;1.85;;;0.55;;
70832;SDS011;58452;59.418;17.962;2023-04-01T16:29:48;2.28;;;0.60;;
70832;SDS011;58452;59.418;17.962;2023-04-01T16:32:32;0.52;;;0.30;;
70832;SDS011;58452;59.418;17.962;2023-04-01T16:41:17;4.40;;;0.73;;
70832;SDS011;58452;59.418;17.962;2023-04-01T16:46:26;6.13;;;0.68;;
70832;SDS011;58452;59.418;17.962;2023-04-01T17:04:53;7.32;;;1.13;;
70832;SDS011;58452;59.418;17.962;2023-04-01T17:07:32;6.32;;;1.02;;
70832;SDS011;58452;59.418;17.962;2023-04-01T17:12:37;6.22;;;1.40;;
70832;SDS011;58452;59.418;17.962;2023-04-01T17:15:20;4.20;;;0.88;;
70832;SDS011;58452;59.418;17.962;2023-04-01T17:20:41;6.18;;;1.20;;
70832;SDS011;58452;59.418;17.962;2023-04-01T17:23:13;4.63;;;1.20;;
70832;SDS011;58452;59.418;17.962;2023-04-01T17:50:46;6.40;;;1.63;;
70832;SDS011;58452;59.418;17.962;2023-04-01T17:56:25;10.43;;;2.53;;
70832;SDS011;58452;59.418;17.962;2023-04-01T18:07:22;7.55;;;1.52;;
70832;SDS011;58452;59.418;17.962;2023-04-01T18:10:03;8.68;;;1.63;;
70832;SDS011;58452;59.418;17.962;2023-04-01T18:15:39;2.22;;;1.45;;
70832;SDS011;58452;59.418;17.962;2023-04-01T18:27:03;8.27;;;1.85;;
70832;SDS011;58452;59.418;17.962;2023-04-01T18:29:45;11.70;;;2.58;;
70832;SDS011;58452;59.418;17.962;2023-04-01T18:35:16;9.15;;;2.85;;
70832;SDS011;58452;59.418;17.962;2023-04-01T18:38:05;12.07;;;3.42;;
70832;SDS011;58452;59.418;17.962;2023-04-01T18:40:36;10.45;;;1.67;;
70832;SDS011;58452;59.418;17.962;2023-04-01T18:45:58;5.03;;;1.10;;
70832;SDS011;58452;59.418;17.962;2023-04-01T18:51:27;8.60;;;1.27;;
70832;SDS011;58452;59.418;17.962;2023-04-01T18:54:05;10.88;;;1.67;;
70832;SDS011;58452;59.418;17.962;2023-04-01T18:56:48;14.80;;;1.65;;
70832;SDS011;58452;59.418;17.962;2023-04-01T18:59:17;4.30;;;1.40;;
70832;SDS011;58452;59.418;17.962;2023-04-01T19:04:39;7.40;;;2.65;;
70832;SDS011;58452;59.418;17.962;2023-04-01T19:10:21;12.18;;;3.90;;
70832;SDS011;58452;59.418;17.962;2023-04-01T19:15:52;6.28;;;1.88;;
70832;SDS011;58452;59.418;17.962;2023-04-01T19:18:43;4.95;;;2.08;;
70832;SDS011;58452;59.418;17.962;2023-04-01T19:21:30;6.05;;;2.08;;
70832;SDS011;58452;59.418;17.962;2023-04-01T19:26:46;11.95;;;3.00;;
70832;SDS011;58452;59.418;17.962;2023-04-01T19:32:17;9.63;;;2.53;;
70832;SDS011;58452;59.418;17.962;2023-04-01T19:37:40;9.30;;;2.20;;
70832;SDS011;58452;59.418;17.962;2023-04-01T19:49:14;5.85;;;2.05;;
70832;SDS011;58452;59.418;17.962;2023-04-01T19:54:38;11.10;;;2.83;;
70832;SDS011;58452;59.418;17.962;2023-04-01T19:57:43;5.78;;;2.03;;
70832;SDS011;58452;59.418;17.962;2023-04-01T20:00:41;10.57;;;3.75;;
70832;SDS011;58452;59.418;17.962;2023-04-01T20:03:14;5.75;;;2.30;;
70832;SDS011;58452;59.418;17.962;2023-04-01T20:11:06;10.38;;;2.22;;
70832;SDS011;58452;59.418;17.962;2023-04-01T20:16:11;6.70;;;1.70;;
70832;SDS011;58452;59.418;17.962;2023-04-01T20:19:12;14.57;;;2.88;;
70832;SDS011;58452;59.418;17.962;2023-04-01T20:21:40;14.80;;;2.95;;
70832;SDS011;58452;59.418;17.962;2023-04-01T20:26:40;11.10;;;2.40;;
70832;SDS011;58452;59.418;17.962;2023-04-01T20:31:41;4.00;;;1.98;;
70832;SDS011;58452;59.418;17.962;2023-04-01T20:37:21;10.18;;;2.03;;
70832;SDS011;58452;59.418;17.962;2023-04-01T20:49:15;6.57;;;1.13;;
70832;SDS011;58452;59.418;17.962;2023-04-01T20:51:46;6.85;;;1.45;;
70832;SDS011;58452;59.418;17.962;2023-04-01T20:54:32;5.47;;;1.80;;
70832;SDS011;58452;59.418;17.962;2023-04-01T20:57:14;11.80;;;1.80;;
70832;SDS011;58452;59.418;17.962;2023-04-01T21:05:22;6.88;;;2.28;;
70832;SDS011;58452;59.418;17.962;2023-04-01T21:10:41;10.77;;;3.10;;
70832;SDS011;58452;59.418;17.962;2023-04-01T21:27:59;5.85;;;2.00;;
70832;SDS011;58452;59.418;17.962;2023-04-01T21:36:34;4.70;;;1.17;;
70832;SDS011;58452;59.418;17.962;2023-04-01T21:42:04;3.00;;;1.17;;
70832;SDS011;58452;59.418;17.962;2023-04-01T21:50:23;9.05;;;1.92;;
70832;SDS011;58452;59.418;17.962;2023-04-01T21:56:06;9.45;;;1.50;;
70832;SDS011;58452;59.418;17.962;2023-04-01T21:58:48;11.45;;;2.35;;
70832;SDS011;58452;59.418;17.962;2023-04-01T22:17:40;12.93;;;2.28;;
70832;SDS011;58452;59.418;17.962;2023-04-01T22:22:57;5.00;;;1.33;;
70832;SDS011;58452;59.418;17.962;2023-04-01T22:25:42;3.88;;;1.40;;
70832;SDS011;58452;59.418;17.962;2023-04-01T22:28:34;15.52;;;1.83;;
70832;SDS011;58452;59.418;17.962;2023-04-01T22:31:08;8.25;;;2.15;;
70832;SDS011;58452;59.418;17.962;2023-04-01T22:33:41;5.45;;;1.13;;
70832;SDS011;58452;59.418;17.962;2023-04-01T22:36:31;7.15;;;1.63;;
70832;SDS011;58452;59.418;17.962;2023-04-01T22:39:04;7.57;;;2.40;;
70832;SDS011;58452;59.418;17.962;2023-04-01T22:47:44;6.35;;;1.77;;
70832;SDS011;58452;59.418;17.962;2023-04-01T22:53:01;7.63;;;1.60;;
70832;SDS011;58452;59.418;17.962;2023-04-01T22:55:50;4.85;;;1.33;;
70832;SDS011;58452;59.418;17.962;2023-04-01T22:58:30;4.90;;;1.20;;
70832;SDS011;58452;59.418;17.962;2023-04-01T23:00:59;5.25;;;1.10;;
70832;SDS011;58452;59.418;17.962;2023-04-01T23:03:32;5.35;;;1.27;;
70832;SDS011;58452;59.418;17.962;2023-04-01T23:06:03;1.02;;;0.75;;
70832;SDS011;58452;59.418;17.962;2023-04-01T23:11:05;7.38;;;1.17;;
70832;SDS011;58452;59.418;17.962;2023-04-01T23:13:38;5.75;;;1.27;;
70832;SDS011;58452;59.418;17.962;2023-04-01T23:16:09;4.68;;;1.63;;
70832;SDS011;58452;59.418;17.962;2023-04-01T23:18:37;6.47;;;1.23;;
70832;SDS011;58452;59.418;17.962;2023-04-01T23:21:14;7.57;;;2.38;;
70832;SDS011;58452;59.418;17.962;2023-04-01T23:29:13;6.78;;;1.48;;
70832;SDS011;58452;59.418;17.962;2023-04-01T23:31:41;6.63;;;1.67;;
70832;SDS011;58452;59.418;17.962;2023-04-01T23:36:46;2.17;;;0.90;;
70832;SDS011;58452;59.418;17.962;2023-04-01T23:39:20;12.57;;;1.50;;
70832;SDS011;58452;59.418;17.962;2023-04-01T23:41:47;6.05;;;1.58;;
70832;SDS011;58452;59.418;17.962;2023-04-01T23:44:15;11.15;;;3.85;;
70832;SDS011;58452;59.418;17.962;2023-04-01T23:46:42;13.35;;;2.08;;
70832;SDS011;58452;59.418;17.962;2023-04-01T23:49:33;6.00;;;1.20;;
70832;SDS011;58452;59.418;17.962;2023-04-01T23:52:03;7.05;;;2.03;;
70832;SDS011;58452;59.418;17.962;2023-04-01T23:54:42;10.10;;;2.25;;
70832;SDS011;58452;59.418;17.962;2023-04-01T23:57:14;4.13;;;1.10;;
70832;SDS011;58452;59.418;17.962;2023-04-01T23:59:43;9.75;;;1.73;;
